Latest Coastal Weather Observations for Tewantin

IDQ60701

Issued at 7:02 am EST Thursday 20 June 2019 (issued every 10 minutes, with the page automatically refreshed every 10 minutes)

About coastal observations | Map of coastal stations | Coastal observations for QLD | Marine services | Other Formats
Station Details ID: 040908 Name: TEWANTIN RSL PARK Lat: -26.39 Lon: 153.04 Height: 6.4 m
Data from the previous 72 hours. | See also: Recent months at Tewantin
Date/Time
EST
Wind Sea
Height
m
Swell Vis
km
Cloud Weather Temp
°C
Press
hPa
Rain since
9am
mm
Dir  Spd
kts
Gust
kts
Height
m
Period
s
Dir
20/07:00am S 7 11 - - - - - - - 16.2 1020.1 0.0
20/06:30am S 8 11 - - - - - - - 16.3 1019.6 0.0
20/06:00am S 6 10 - - - - - - - 16.2 1019.3 0.0
20/05:30am S 8 11 - - - - - - - 16.0 1019.0 0.0
20/05:00am S 6 9 - - - - - - - 15.8 1018.9 0.0
20/04:30am S 6 10 - - - - - - - 15.6 1018.7 0.0
20/04:00am SSW 5 8 - - - - - - - 15.5 1018.6 0.0
20/03:30am SSW 6 10 - - - - - - - 15.5 1018.7 0.0
20/03:00am S 7 11 - - - - - - - 15.2 1018.6 0.0
20/02:30am S 6 11 - - - - - - - 15.2 1018.8 0.0
20/02:00am S 6 9 - - - - - - - 15.3 1019.0 0.0
20/01:30am S 5 8 - - - - - - - 15.4 1018.9 0.0
20/01:00am S 5 8 - - - - - - - 15.3 1018.9 0.0
20/12:30am S 2 7 - - - - - - - 14.6 1019.1 0.0
20/12:00am CALM 0 0 - - - - - - - 14.3 1019.3 0.0
 
Date/Time
EST
Wind Sea
Height
m
Swell Vis
km
Cloud Weather Temp
°C
Press
hPa
Rain since
9am
mm
Dir  Spd
kts
Gust
kts
Height
m
Period
s
Dir
19/11:30pm CALM 0 0 - - - - - - - 14.3 1019.4 0.0
19/11:00pm CALM 0 0 - - - - - - - 14.3 1019.6 0.0
19/10:30pm S 2 4 - - - - - - - 14.4 1019.7 0.0
19/10:00pm CALM 0 0 - - - - - - - 14.4 1019.9 0.0
19/09:30pm CALM 0 3 - - - - - - - 14.4 1019.7 0.0
19/09:00pm CALM 0 0 - - - - - - - 14.6 1019.4 0.0
19/08:30pm S 1 3 - - - - - - - 14.8 1019.4 0.0
19/08:00pm CALM 0 0 - - - - - - - 15.4 1019.5 0.0
19/07:30pm CALM 0 0 - - - - - - - 15.5 1019.4 0.0
19/07:00pm SW 1 4 - - - - - - - 16.1 1019.1 0.0
19/06:30pm SW 3 4 - - - - - - - 16.8 1019.0 0.0
19/06:00pm SW 4 4 - - - - - - - 17.6 1018.5 0.0
19/05:30pm CALM 0 0 - - - - - - - 18.5 1018.4 0.0
19/05:00pm SE 2 6 - - - - - - - 19.3 1018.0 0.0
19/04:30pm SE 4 7 - - - - - - - 20.0 1017.7 0.0
19/04:00pm SSE 5 10 - - - - - - - 20.4 1017.5 0.0
19/03:30pm SE 6 11 - - - - - - - 20.8 1017.3 0.0
19/03:00pm SE 6 9 - - - - - - - 21.2 1017.0 0.0
19/02:30pm SE 6 8 - - - - - - - 21.3 1016.8 0.0
19/02:00pm SE 5 7 - - - - - - - 22.0 1016.8 0.0
19/01:30pm ESE 4 6 - - - - - - - 22.3 1016.9 0.0
19/01:00pm ESE 4 6 - - - - - - - 23.0 1017.1 0.0
19/12:30pm ESE 6 9 - - - - - - - 22.0 1017.3 0.0
19/12:00pm SE 4 6 - - - - - - - 22.0 1017.6 0.0
19/11:30am SSW 4 6 - - - - - - - 22.2 1018.0 0.0
19/11:00am S 5 8 - - - - - - - 21.7 1018.4 0.0
19/10:30am SW 5 7 - - - - - - - 21.7 1018.6 0.0
19/10:00am WSW 1 4 - - - - - - - 20.7 1018.8 0.0
19/09:30am SW 1 4 - - - - - - - 19.1 1019.0 0.0
19/09:00am SW 3 7 - - - - - - - 17.2 1018.9 0.0
19/08:30am W 2 4 - - - - - - - 15.8 1018.8 0.0
19/08:00am WSW 3 6 - - - - - - - 14.0 1018.5 0.0
19/07:30am WSW 2 4 - - - - - - - 12.1 1018.3 0.0
19/07:00am CALM 0 2 - - - - - - - 9.7 1017.9 0.0
19/06:30am CALM 0 0 - - - - - - - 9.4 1017.5 0.0
19/06:00am CALM 0 1 - - - - - - - 9.0 1017.1 0.0
19/05:30am NW 1 3 - - - - - - - 9.4 1016.8 0.0
19/05:00am CALM 0 0 - - - - - - - 9.4 1016.7 0.0
19/04:30am WNW 2 4 - - - - - - - 9.8 1016.6 0.0
19/04:00am CALM 0 2 - - - - - - - 9.7 1016.5 0.0
19/03:30am CALM 0 3 - - - - - - - 9.7 1016.6 0.0
19/03:00am CALM 0 0 - - - - - - - 10.1 1016.8 0.0
19/02:30am W 1 4 - - - - - - - 9.9 1016.8 0.0
19/02:00am WNW 1 4 - - - - - - - 10.4 1016.8 0.0
19/01:30am WNW 3 6 - - - - - - - 10.5 1017.1 0.0
19/01:00am CALM 0 0 - - - - - - - 9.9 1017.4 0.0
19/12:30am WNW 2 4 - - - - - - - 10.1 1017.5 0.0
19/12:00am CALM 0 1 - - - - - - - 10.0 1017.7 0.0
 
Date/Time
EST
Wind Sea
Height
m
Swell Vis
km
Cloud Weather Temp
°C
Press
hPa
Rain since
9am
mm
Dir  Spd
kts
Gust
kts
Height
m
Period
s
Dir
18/11:30pm CALM 0 4 - - - - - - - 10.3 1017.8 0.0
18/11:00pm CALM 0 0 - - - - - - - 10.6 1017.9 0.0
18/10:30pm CALM 0 0 - - - - - - - 10.7 1018.1 0.0
18/10:00pm CALM 0 0 - - - - - - - 10.7 1018.0 0.0
18/09:30pm CALM 0 0 - - - - - - - 11.5 1018.1 0.0
18/09:00pm WNW 1 4 - - - - - - - 11.5 1018.1 0.0
18/08:30pm CALM 0 0 - - - - - - - 11.9 1017.9 0.0
18/08:00pm CALM 0 0 - - - - - - - 12.5 1017.9 0.0
18/07:30pm CALM 0 0 - - - - - - - 13.1 1017.9 0.0
18/07:00pm CALM 0 0 - - - - - - - 13.4 1017.9 0.0
18/06:30pm CALM 0 0 - - - - - - - 14.5 1017.5 0.0
18/06:00pm SW 2 4 - - - - - - - 15.6 1016.9 0.0
18/05:30pm CALM 0 0 - - - - - - - 16.7 1016.6 0.0
18/05:00pm N 2 3 - - - - - - - 17.8 1016.3 0.0
18/04:30pm NNE 4 5 - - - - - - - 18.5 1016.0 0.0
18/04:00pm NNE 6 8 - - - - - - - 19.1 1015.9 0.0
18/03:30pm NNE 6 9 - - - - - - - 19.7 1015.5 0.0
18/03:00pm E 4 6 - - - - - - - 20.1 1015.2 0.0
18/02:30pm ENE 3 5 - - - - - - - 20.2 1015.4 0.0
18/02:00pm ESE 5 6 - - - - - - - 20.2 1015.5 0.0
18/01:30pm ENE 5 7 - - - - - - - 21.2 1015.9 0.0
18/01:00pm NE 2 5 - - - - - - - 21.0 1016.2 0.0
18/12:30pm E 3 5 - - - - - - - 20.8 1016.6 0.0
18/12:00pm NE 1 4 - - - - - - - 21.0 1016.9 0.0
18/11:30am ENE 3 4 - - - - - - - 20.5 1017.3 0.0
18/11:00am S 1 4 - - - - - - - 20.4 1017.8 0.0
18/10:30am SSW 3 5 - - - - - - - 19.1 1018.2 0.0
18/10:00am WSW 3 5 - - - - - - - 18.4 1018.5 0.0
18/09:30am NW 4 5 - - - - - - - 17.4 1018.7 0.0
18/09:00am WNW 2 5 - - - - - - - 16.0 1018.6 0.0
18/08:30am NW 3 5 - - - - - - - 14.3 1018.5 0.0
18/08:00am NNW 1 4 - - - - - - - 12.6 1018.2 0.0
18/07:30am NNW 3 5 - - - - - - - 10.9 1018.0 0.0
18/07:00am NW 1 5 - - - - - - - 9.1 1017.9 0.0
18/06:30am N 1 4 - - - - - - - 9.3 1017.7 0.0
18/06:00am WSW 4 6 - - - - - - - 9.6 1017.3 0.0
18/05:30am CALM 0 3 - - - - - - - 9.2 1016.9 0.0
18/05:00am CALM 0 3 - - - - - - - 9.4 1016.6 0.0
18/04:30am W 1 4 - - - - - - - 9.1 1016.4 0.0
18/04:00am CALM 0 0 - - - - - - - 9.2 1016.6 0.0
18/03:30am WSW 1 4 - - - - - - - 9.3 1016.6 0.0
18/03:00am CALM 0 0 - - - - - - - 9.4 1016.8 0.0
18/02:30am NW 1 4 - - - - - - - 9.8 1016.9 0.0
18/02:00am CALM 0 3 - - - - - - - 9.9 1017.2 0.0
18/01:30am CALM 0 4 - - - - - - - 10.0 1017.4 0.0
18/01:00am NNW 1 3 - - - - - - - 10.6 1017.5 0.0
18/12:30am CALM 0 1 - - - - - - - 10.5 1017.6 0.0
18/12:00am CALM 0 0 - - - - - - - 11.2 1017.7 0.0
 
Date/Time
EST
Wind Sea
Height
m
Swell Vis
km
Cloud Weather Temp
°C
Press
hPa
Rain since
9am
mm
Dir  Spd
kts
Gust
kts
Height
m
Period
s
Dir
17/11:30pm CALM 0 0 - - - - - - - 11.4 1017.8 0.0
17/11:00pm CALM 0 0 - - - - - - - 11.8 1018.0 0.0
17/10:30pm CALM 0 0 - - - - - - - 12.3 1018.0 0.0
17/10:00pm CALM 0 0 - - - - - - - 12.6 1017.9 0.0
17/09:30pm WSW 2 4 - - - - - - - 13.1 1017.7 0.0
17/09:00pm WSW 3 5 - - - - - - - 13.9 1017.8 0.0
17/08:30pm W 3 4 - - - - - - - 13.4 1017.8 0.0
17/08:00pm W 2 3 - - - - - - - 14.0 1017.6 0.0
17/07:30pm CALM 0 1 - - - - - - - 14.3 1017.5 0.0
17/07:00pm CALM 0 0 - - - - - - - 14.3 1017.4 0.0
17/06:30pm SW 2 4 - - - - - - - 14.8 1016.8 0.0
17/06:00pm SW 1 4 - - - - - - - 15.9 1016.5 0.0
17/05:30pm CALM 0 0 - - - - - - - 17.0 1016.0 0.0
17/05:00pm SSW 1 4 - - - - - - - 18.7 1015.6 0.0
17/04:30pm WSW 4 6 - - - - - - - 21.0 1015.3 0.0
17/04:00pm WSW 2 4 - - - - - - - 21.0 1015.3 0.0
17/03:30pm WSW 3 4 - - - - - - - 21.3 1015.1 0.0
17/03:00pm W 5 7 - - - - - - - 21.7 1014.8 0.0
17/02:30pm WNW 6 9 - - - - - - - 21.8 1015.1 0.0
17/02:00pm W 5 9 - - - - - - - 22.6 1015.1 0.0
17/01:30pm W 5 9 - - - - - - - 23.0 1015.3 0.0
17/01:00pm SW 5 9 - - - - - - - 22.3 1015.6 0.0
17/12:30pm WSW 7 12 - - - - - - - 21.9 1015.9 0.0
17/12:00pm WSW 4 7 - - - - - - - 22.0 1016.2 0.0
17/11:30am SSW 4 7 - - - - - - - 21.0 1016.7 0.0
17/11:00am SW 5 8 - - - - - - - 21.1 1017.2 0.0
17/10:30am SW 7 12 - - - - - - - 20.0 1017.5 0.0
17/10:00am SW 4 7 - - - - - - - 19.8 1017.9 0.0
17/09:30am SW 4 6 - - - - - - - 18.5 1018.0 0.0
17/09:00am SW 5 8 - - - - - - - 18.4 1018.0 28.8
17/08:30am SW 4 6 - - - - - - - 17.8 1017.8 28.8
17/08:00am CALM 0 0 - - - - - - - 16.6 1017.6 28.8
17/07:30am SSW 2 4 - - - - - - - 16.6 1017.1 28.8

Other formats

Comma delimited format used in spreadsheet applications
http://www.bom.gov.au/fwo/IDQ60701/IDQ60701.94570.axf

JavaScript Object Notation format (JSON) in row-major order
http://www.bom.gov.au/fwo/IDQ60701/IDQ60701.94570.json

Data quality

Most of these data are generated automatically and are frequently updated. Quality checks on data are not normally performed. It is possible for incorrect values to appear. Refer to information at About Latest Weather Observations and please check the disclaimer before using these data.